createdAt,value
2023-03-29T05:18:32.293Z,6.68
2023-03-29T05:21:00.223Z,5.53
2023-03-29T05:23:27.990Z,2.95
2023-03-29T05:25:54.906Z,4.78
2023-03-29T05:28:22.495Z,6.25
2023-03-29T05:31:05.133Z,7.90
2023-03-29T05:33:33.673Z,7.07
2023-03-29T05:36:08.044Z,4.75
2023-03-29T05:38:35.758Z,6.35
2023-03-29T05:41:03.072Z,8.98
2023-03-29T05:43:30.093Z,4.18
2023-03-29T05:45:57.224Z,4.40
2023-03-29T05:48:24.643Z,3.95
2023-03-29T05:50:53.720Z,6.53
2023-03-29T05:53:22.262Z,3.78
2023-03-29T05:55:49.324Z,2.45
2023-03-29T05:58:18.110Z,6.43
2023-03-29T06:00:45.281Z,8.63
2023-03-29T06:03:21.450Z,1.70
2023-03-29T06:05:59.234Z,3.05
2023-03-29T06:08:27.666Z,5.18
2023-03-29T06:11:06.521Z,4.90
2023-03-29T06:13:34.109Z,4.90
2023-03-29T06:16:01.408Z,6.35
2023-03-29T06:18:29.681Z,3.67
2023-03-29T06:20:56.604Z,3.25
2023-03-29T06:23:23.716Z,4.30
2023-03-29T06:25:55.404Z,3.15
2023-03-29T06:28:24.016Z,7.15
2023-03-29T06:33:18.856Z,3.17
2023-03-29T06:35:48.050Z,4.72
2023-03-29T06:38:15.255Z,3.88
2023-03-29T06:40:43.214Z,8.07
2023-03-29T06:43:10.648Z,4.50
2023-03-29T06:50:35.901Z,2.95
2023-03-29T06:53:04.097Z,2.40
2023-03-29T07:00:29.883Z,0.85
2023-03-29T07:02:58.680Z,3.22
2023-03-29T07:42:39.309Z,2.53
2023-03-29T08:04:46.895Z,4.70
2023-03-29T08:07:16.970Z,0.65
2023-03-29T16:04:10.840Z,1.10
2023-03-29T16:36:06.837Z,0.73
2023-03-29T16:38:36.243Z,2.47
2023-03-29T16:41:03.126Z,4.00
2023-03-29T16:43:29.994Z,2.90
2023-03-29T16:45:57.426Z,3.23
2023-03-29T16:48:24.473Z,2.93
2023-03-29T16:50:51.783Z,3.60
2023-03-29T17:03:12.874Z,6.47
2023-03-29T17:05:42.728Z,5.43
2023-03-29T17:08:10.226Z,2.28
2023-03-29T17:10:40.838Z,2.28
2023-03-29T17:13:08.321Z,2.22
2023-03-29T17:15:38.158Z,4.35
2023-03-29T17:18:06.599Z,5.82
2023-03-29T17:20:33.656Z,4.50
2023-03-29T17:23:00.746Z,4.15
2023-03-29T17:25:27.664Z,3.65
2023-03-29T17:27:54.526Z,6.60
2023-03-29T17:30:21.532Z,4.53
2023-03-29T17:32:48.725Z,7.03
2023-03-29T17:35:15.682Z,8.07
2023-03-29T17:37:42.600Z,5.35
2023-03-29T17:40:11.428Z,3.67
2023-03-29T17:42:38.443Z,5.07
2023-03-29T17:45:06.235Z,4.65
2023-03-29T17:47:33.146Z,4.35
2023-03-29T17:50:00.492Z,6.88
2023-03-29T17:52:27.336Z,3.30
2023-03-29T17:54:54.192Z,3.80
2023-03-29T17:57:21.095Z,6.05
2023-03-29T17:59:47.932Z,5.45
2023-03-29T18:02:22.313Z,9.85
2023-03-29T18:04:49.813Z,9.93
2023-03-29T18:07:17.396Z,13.38
2023-03-29T18:09:44.327Z,9.57
2023-03-29T18:12:11.144Z,12.40
2023-03-29T18:14:38.135Z,13.68
2023-03-29T18:17:05.085Z,12.30
2023-03-29T18:19:32.046Z,6.68
2023-03-29T18:21:58.870Z,7.18
2023-03-29T18:24:26.186Z,7.60
2023-03-29T18:26:53.142Z,11.70
2023-03-29T18:29:19.926Z,7.70
2023-03-29T18:31:47.424Z,8.00
2023-03-29T18:34:14.626Z,12.15
2023-03-29T18:36:41.572Z,12.43
2023-03-29T18:39:09.675Z,5.68
2023-03-29T18:41:37.423Z,7.35
2023-03-29T18:44:05.075Z,7.05
2023-03-29T18:46:33.293Z,4.40
2023-03-29T18:49:01.418Z,4.88
2023-03-29T18:51:28.596Z,5.47
2023-03-29T18:53:56.488Z,3.30
2023-03-29T18:56:23.511Z,5.50
2023-03-29T18:58:50.389Z,5.43
2023-03-29T19:01:17.630Z,4.47
2023-03-29T19:03:44.723Z,4.80
2023-03-29T19:06:12.005Z,3.65
2023-03-29T19:08:41.274Z,6.57
2023-03-29T19:11:11.358Z,5.72
2023-03-29T19:13:38.355Z,4.28
2023-03-29T19:16:05.824Z,3.95
2023-03-29T19:18:33.166Z,4.28
2023-03-29T19:21:00.113Z,6.43
2023-03-29T19:23:28.359Z,5.75
2023-03-29T19:25:57.835Z,7.18
2023-03-29T19:28:25.321Z,9.38
2023-03-29T19:30:52.919Z,9.15
2023-03-29T19:33:20.210Z,10.48
2023-03-29T19:35:49.572Z,9.07
2023-03-29T19:38:16.820Z,10.43
2023-03-29T19:40:48.270Z,14.00
2023-03-29T19:45:45.573Z,5.22
2023-03-29T19:48:21.895Z,16.23
2023-03-29T19:53:17.353Z,15.18
2023-03-29T19:55:45.400Z,12.82
